createdAt,value
2018-07-28T00:00:35.378Z,1
2018-07-28T00:01:51.235Z,0
2018-07-28T00:03:07.175Z,0
2018-07-28T00:04:23.031Z,0
2018-07-28T00:05:38.896Z,0
2018-07-28T00:06:54.802Z,0
2018-07-28T00:08:10.764Z,0
2018-07-28T00:09:26.639Z,0
2018-07-28T00:10:42.539Z,0
2018-07-28T00:11:58.402Z,0
2018-07-28T00:13:14.302Z,0
2018-07-28T00:14:30.215Z,0
2018-07-28T00:15:46.128Z,0
2018-07-28T00:17:02.028Z,0
2018-07-28T00:18:17.890Z,0
2018-07-28T00:19:33.806Z,0
2018-07-28T00:20:49.810Z,0
2018-07-28T00:22:05.676Z,0
2018-07-28T00:23:21.544Z,0
2018-07-28T00:24:38.455Z,0
2018-07-28T00:25:54.317Z,0
2018-07-28T00:27:10.169Z,0
2018-07-28T00:28:26.054Z,0
2018-07-28T00:29:41.933Z,0
2018-07-28T00:30:57.815Z,0
2018-07-28T00:32:13.712Z,0
2018-07-28T00:33:29.577Z,0
2018-07-28T00:34:45.480Z,0
2018-07-28T00:36:01.362Z,0
2018-07-28T00:37:17.259Z,0
2018-07-28T00:38:33.125Z,0
2018-07-28T00:39:48.993Z,0
2018-07-28T00:41:04.871Z,1
2018-07-28T00:42:20.731Z,0
2018-07-28T00:43:36.600Z,0
2018-07-28T00:44:52.491Z,0
2018-07-28T00:46:08.358Z,0
2018-07-28T00:47:24.260Z,0
2018-07-28T00:48:40.137Z,0
2018-07-28T00:49:56.006Z,0
2018-07-28T00:51:11.882Z,0
2018-07-28T00:52:27.754Z,0
2018-07-28T00:53:43.620Z,0
2018-07-28T00:54:59.515Z,0
2018-07-28T00:56:15.393Z,1
2018-07-28T00:57:31.259Z,0
2018-07-28T00:58:47.138Z,0
2018-07-28T01:00:03.029Z,0
2018-07-28T01:01:18.895Z,0
2018-07-28T01:02:34.777Z,0
2018-07-28T01:03:50.665Z,0
2018-07-28T01:05:06.560Z,0
2018-07-28T01:06:22.466Z,0
2018-07-28T01:07:38.364Z,0
2018-07-28T01:08:54.264Z,0
2018-07-28T01:10:10.156Z,0
2018-07-28T01:11:26.071Z,0
2018-07-28T01:12:41.981Z,0
2018-07-28T01:13:58.822Z,0
2018-07-28T01:15:14.731Z,0
2018-07-28T01:16:30.604Z,0
2018-07-28T01:17:46.477Z,0
2018-07-28T01:19:02.339Z,0
2018-07-28T01:20:18.218Z,0
2018-07-28T01:21:34.106Z,0
2018-07-28T01:22:50.062Z,0
2018-07-28T01:24:05.971Z,0
2018-07-28T01:25:21.835Z,0
2018-07-28T01:26:37.770Z,0
2018-07-28T01:27:53.682Z,0
2018-07-28T01:29:09.586Z,0
2018-07-28T01:30:25.486Z,0
2018-07-28T01:31:41.361Z,0
2018-07-28T01:32:57.205Z,0
2018-07-28T01:34:13.106Z,0
2018-07-28T01:35:28.981Z,0
2018-07-28T01:36:44.818Z,0
2018-07-28T01:38:00.677Z,0
2018-07-28T01:39:16.552Z,0
2018-07-28T01:40:32.480Z,0
2018-07-28T01:41:48.359Z,0
2018-07-28T01:43:04.248Z,0
2018-07-28T01:44:20.136Z,1
2018-07-28T01:45:35.998Z,0
2018-07-28T01:46:51.886Z,1
2018-07-28T01:48:07.760Z,0
2018-07-28T01:49:23.677Z,0
2018-07-28T01:50:39.527Z,0
2018-07-28T01:51:55.419Z,0
2018-07-28T01:53:11.329Z,0
2018-07-28T01:54:27.215Z,0
2018-07-28T01:55:43.098Z,0
2018-07-28T01:56:58.973Z,0
2018-07-28T01:58:14.848Z,0
2018-07-28T01:59:30.761Z,1
2018-07-28T02:00:46.667Z,1
2018-07-28T02:02:02.543Z,1
2018-07-28T02:03:18.423Z,1
2018-07-28T02:04:34.295Z,1
2018-07-28T02:05:50.197Z,1
2018-07-28T02:07:06.108Z,1
2018-07-28T02:08:21.968Z,1
2018-07-28T02:09:37.851Z,1
2018-07-28T02:10:53.759Z,1
2018-07-28T02:12:09.622Z,1
2018-07-28T02:13:25.481Z,1
2018-07-28T02:14:41.345Z,1
2018-07-28T02:15:57.222Z,1
2018-07-28T02:17:13.129Z,1
2018-07-28T02:18:29.009Z,1
2018-07-28T02:19:44.904Z,1
2018-07-28T02:21:00.794Z,1
2018-07-28T02:22:16.650Z,1
2018-07-28T02:23:32.500Z,1
2018-07-28T02:24:48.416Z,1
2018-07-28T02:26:04.309Z,1
2018-07-28T02:27:20.176Z,1
2018-07-28T02:28:36.063Z,1
2018-07-28T02:29:51.905Z,1
2018-07-28T02:31:07.769Z,1
2018-07-28T02:32:23.649Z,1
2018-07-28T02:33:39.526Z,1
2018-07-28T02:34:55.385Z,1
2018-07-28T02:36:11.234Z,1
2018-07-28T02:37:27.117Z,1
2018-07-28T02:38:42.986Z,1
2018-07-28T02:39:58.841Z,1
2018-07-28T02:41:14.750Z,1
2018-07-28T02:42:30.635Z,1
2018-07-28T02:43:47.490Z,1
2018-07-28T02:45:03.358Z,1
2018-07-28T02:46:19.259Z,1
2018-07-28T02:47:35.155Z,1
2018-07-28T02:48:51.016Z,1
2018-07-28T02:50:06.875Z,1
2018-07-28T02:51:22.729Z,1
2018-07-28T02:52:38.604Z,1
2018-07-28T02:53:54.463Z,1
2018-07-28T02:55:10.311Z,1
2018-07-28T02:56:26.203Z,1
2018-07-28T02:57:42.083Z,1
2018-07-28T02:58:57.967Z,1
2018-07-28T03:00:13.869Z,1
2018-07-28T03:01:29.696Z,1
2018-07-28T03:02:45.620Z,1
2018-07-28T03:04:01.493Z,1
2018-07-28T03:05:18.368Z,1
2018-07-28T03:06:34.239Z,1
2018-07-28T03:07:50.121Z,1
2018-07-28T03:09:05.997Z,1
2018-07-28T03:10:21.848Z,1
2018-07-28T03:11:37.783Z,1
2018-07-28T03:12:53.644Z,0
2018-07-28T03:14:09.518Z,0
2018-07-28T03:15:25.414Z,1
2018-07-28T03:16:41.273Z,1
2018-07-28T03:17:57.157Z,1
2018-07-28T03:19:13.053Z,2
2018-07-28T03:20:28.939Z,1
2018-07-28T03:21:44.824Z,2
2018-07-28T03:23:00.682Z,2
2018-07-28T03:24:16.560Z,1
2018-07-28T03:25:32.415Z,3
2018-07-28T03:26:48.287Z,3
2018-07-28T03:28:04.147Z,3
2018-07-28T03:29:20.026Z,4
2018-07-28T03:30:35.910Z,4
2018-07-28T03:31:51.765Z,6
2018-07-28T03:33:07.643Z,6
2018-07-28T03:34:23.525Z,9
2018-07-28T03:35:39.383Z,10
2018-07-28T03:36:55.265Z,12
2018-07-28T03:38:11.163Z,15
2018-07-28T03:39:27.028Z,18
2018-07-28T03:40:42.894Z,22
2018-07-28T03:41:58.775Z,27
2018-07-28T03:43:14.695Z,33
2018-07-28T03:44:30.569Z,40
2018-07-28T03:45:46.465Z,48
2018-07-28T03:47:02.310Z,59
2018-07-28T03:48:18.209Z,69
2018-07-28T03:49:34.103Z,82
2018-07-28T03:50:49.993Z,95
2018-07-28T03:52:06.828Z,109
2018-07-28T03:53:22.706Z,126
2018-07-28T03:54:38.619Z,141
2018-07-28T03:55:54.487Z,160
2018-07-28T03:57:10.357Z,179
2018-07-28T03:58:26.229Z,198
2018-07-28T03:59:42.120Z,219
2018-07-28T04:00:58.031Z,242
2018-07-28T04:02:13.931Z,265
2018-07-28T04:03:29.767Z,289
2018-07-28T04:04:45.646Z,314
2018-07-28T04:06:01.528Z,339
2018-07-28T04:07:17.438Z,367
2018-07-28T04:08:33.304Z,393
2018-07-28T04:09:49.183Z,422
2018-07-28T04:11:05.050Z,452
2018-07-28T04:12:20.925Z,483
2018-07-28T04:13:36.785Z,515
2018-07-28T04:14:52.662Z,548
2018-07-28T04:16:08.528Z,582
2018-07-28T04:17:24.371Z,618
2018-07-28T04:18:40.237Z,653
2018-07-28T04:19:56.126Z,687
2018-07-28T04:21:12.014Z,720
2018-07-28T04:22:27.862Z,755
2018-07-28T04:23:43.811Z,789
2018-07-28T04:24:59.707Z,823
2018-07-28T04:26:15.555Z,857
2018-07-28T04:27:31.435Z,891
2018-07-28T04:28:47.322Z,926
2018-07-28T04:30:03.193Z,963
2018-07-28T04:31:19.065Z,1000
2018-07-28T04:32:34.933Z,1031
2018-07-28T04:33:50.789Z,1059
2018-07-28T04:36:51.411Z,1082
2018-07-28T04:38:07.266Z,1150
2018-07-28T04:39:23.121Z,1178
2018-07-28T04:40:38.975Z,1201
2018-07-28T04:41:54.834Z,1225
2018-07-28T04:43:10.701Z,1249
2018-07-28T04:44:26.561Z,1265
2018-07-28T04:45:42.411Z,1271
2018-07-28T04:46:58.307Z,1285
2018-07-28T04:48:14.198Z,1297
2018-07-28T04:49:30.074Z,1315
2018-07-28T04:50:45.964Z,1338
2018-07-28T04:52:01.881Z,1340
2018-07-28T04:53:17.750Z,1336
2018-07-28T04:54:33.761Z,1327
2018-07-28T04:55:49.604Z,1320
2018-07-28T04:57:05.509Z,1316
2018-07-28T04:58:21.377Z,1322
2018-07-28T04:59:37.259Z,1338
2018-07-28T05:00:53.110Z,1375
2018-07-28T05:02:09.006Z,1426
2018-07-28T05:03:24.887Z,1469
2018-07-28T05:04:40.768Z,1507
2018-07-28T05:05:56.633Z,1525
2018-07-28T05:07:12.553Z,1514
2018-07-28T05:08:28.389Z,1561
2018-07-28T05:09:44.289Z,1560
2018-07-28T05:11:00.145Z,1549
2018-07-28T05:12:16.033Z,1515
2018-07-28T05:13:31.890Z,1479
2018-07-28T05:14:47.770Z,1456
2018-07-28T05:16:03.670Z,1459
2018-07-28T05:17:19.535Z,1478
2018-07-28T05:18:35.392Z,1504
2018-07-28T05:19:51.302Z,1537
2018-07-28T05:21:07.195Z,1572
2018-07-28T05:22:23.114Z,1609
2018-07-28T05:23:39.001Z,1673
2018-07-28T05:24:54.872Z,1690
2018-07-28T05:26:10.782Z,1743
2018-07-28T05:27:26.684Z,1770
2018-07-28T05:28:42.554Z,1807
2018-07-28T05:29:58.441Z,1836
2018-07-28T05:31:14.317Z,1878
2018-07-28T05:32:30.172Z,1939
2018-07-28T05:33:46.094Z,2032
2018-07-28T05:35:01.999Z,2127
2018-07-28T05:36:17.923Z,2152
2018-07-28T05:37:33.814Z,2173
2018-07-28T05:38:49.743Z,2200
2018-07-28T05:40:05.626Z,2222
2018-07-28T05:41:21.519Z,2247
2018-07-28T05:42:37.455Z,2274
2018-07-28T05:43:53.336Z,2300
2018-07-28T05:45:09.391Z,2325
2018-07-28T05:46:25.366Z,2350
2018-07-28T05:47:41.263Z,2373
2018-07-28T05:48:57.187Z,2409
2018-07-28T05:50:13.238Z,2455
2018-07-28T05:51:29.081Z,2511
2018-07-28T05:52:45.025Z,2583
2018-07-28T05:54:00.922Z,2661
2018-07-28T05:55:16.851Z,2737
2018-07-28T05:56:32.725Z,2799
2018-07-28T05:57:48.641Z,2841
2018-07-28T05:59:04.557Z,2876
2018-07-28T06:00:20.495Z,2924
2018-07-28T06:01:36.387Z,2924
2018-07-28T06:02:52.353Z,3034
2018-07-28T06:04:08.242Z,3144
2018-07-28T06:05:24.167Z,3229
2018-07-28T06:06:40.053Z,3283
2018-07-28T06:07:55.950Z,3330
2018-07-28T06:09:11.824Z,3372
2018-07-28T06:10:27.696Z,3397
2018-07-28T06:11:43.671Z,3423
2018-07-28T06:12:59.569Z,3415
2018-07-28T06:14:15.521Z,3399
2018-07-28T06:15:31.401Z,3361
2018-07-28T06:16:47.255Z,3306
2018-07-28T06:18:03.147Z,3253
2018-07-28T06:19:19.046Z,3200
2018-07-28T06:20:34.929Z,3150
2018-07-28T06:21:50.855Z,3031
2018-07-28T06:23:06.740Z,2925
2018-07-28T06:24:22.630Z,2907
2018-07-28T06:25:38.503Z,2929
2018-07-28T06:26:54.459Z,2949
2018-07-28T06:28:11.365Z,3023
2018-07-28T06:29:27.259Z,3107
2018-07-28T06:30:43.131Z,3184
2018-07-28T06:31:59.109Z,3397
2018-07-28T06:33:14.999Z,3498
2018-07-28T06:34:30.924Z,3492
2018-07-28T06:35:46.838Z,3509
2018-07-28T06:37:02.750Z,3529
2018-07-28T06:38:18.637Z,3551
2018-07-28T06:39:34.555Z,3608
2018-07-28T06:40:50.430Z,3663
2018-07-28T06:42:06.370Z,3727
2018-07-28T06:43:22.349Z,3805
2018-07-28T06:44:38.266Z,3878
2018-07-28T06:45:54.172Z,3958
2018-07-28T06:47:10.107Z,4072
2018-07-28T06:48:26.026Z,4119
2018-07-28T06:49:41.967Z,4106
2018-07-28T06:50:57.970Z,4078
2018-07-28T06:52:13.895Z,3980
2018-07-28T06:53:29.854Z,3585
2018-07-28T06:54:45.858Z,3581
2018-07-28T06:56:01.773Z,3589
2018-07-28T06:57:18.746Z,3587
2018-07-28T06:58:34.663Z,3627
2018-07-28T06:59:50.504Z,3540
2018-07-28T07:01:06.417Z,3512
2018-07-28T07:02:22.371Z,3574
2018-07-28T07:03:38.361Z,3827
2018-07-28T07:04:54.398Z,3677
2018-07-28T07:06:10.296Z,3696
2018-07-28T07:07:26.247Z,3730
2018-07-28T07:08:42.208Z,3836
2018-07-28T07:09:58.145Z,4031
2018-07-28T07:11:14.030Z,4253
2018-07-28T07:12:29.996Z,4479
2018-07-28T07:13:46.089Z,4722
2018-07-28T07:15:01.979Z,4960
2018-07-28T07:16:17.882Z,5210
2018-07-28T07:17:33.861Z,5429
2018-07-28T07:18:50.790Z,5592
2018-07-28T07:20:06.714Z,5691
2018-07-28T07:21:22.631Z,5690
2018-07-28T07:22:38.603Z,5611
2018-07-28T07:23:54.544Z,5461
2018-07-28T07:25:10.495Z,5266
2018-07-28T07:26:26.437Z,5047
2018-07-28T07:27:42.386Z,4860
2018-07-28T07:28:58.292Z,4729
2018-07-28T07:30:14.196Z,4670
2018-07-28T07:31:30.104Z,4603
2018-07-28T07:32:46.050Z,4482
2018-07-28T07:34:01.975Z,4308
2018-07-28T07:35:17.902Z,4067
2018-07-28T07:36:33.947Z,3766
2018-07-28T07:37:50.900Z,3474
2018-07-28T07:39:06.872Z,3240
2018-07-28T07:40:23.101Z,3092
2018-07-28T07:41:39.064Z,3021
2018-07-28T07:42:55.001Z,2981
2018-07-28T07:44:10.964Z,2924
2018-07-28T07:45:26.873Z,2824
2018-07-28T07:46:42.870Z,2713
2018-07-28T07:47:58.862Z,2615
2018-07-28T07:49:14.875Z,2532
2018-07-28T07:50:30.840Z,2425
2018-07-28T07:51:46.812Z,2261
2018-07-28T07:53:03.902Z,2023
2018-07-28T07:54:20.029Z,1760
2018-07-28T07:55:36.026Z,1548
2018-07-28T07:56:51.978Z,1416
2018-07-28T07:58:07.937Z,1395
2018-07-28T07:59:23.898Z,1462
2018-07-28T08:00:39.833Z,1627
2018-07-28T08:01:55.745Z,1821
2018-07-28T08:03:11.710Z,1981
2018-07-28T08:04:27.610Z,2148
2018-07-28T08:05:43.542Z,2299
2018-07-28T08:06:59.513Z,2520
2018-07-28T08:08:15.419Z,2739
2018-07-28T08:09:31.330Z,2956
2018-07-28T08:10:47.226Z,3218
2018-07-28T08:12:03.125Z,3558
2018-07-28T08:13:19.136Z,3917
2018-07-28T08:14:35.090Z,4291
2018-07-28T08:15:51.045Z,4502
2018-07-28T08:17:06.993Z,4448
2018-07-28T08:18:22.937Z,4226
2018-07-28T08:19:38.868Z,3835
2018-07-28T08:20:54.883Z,3403
2018-07-28T08:22:10.762Z,3063
2018-07-28T08:23:26.700Z,2916
2018-07-28T08:24:42.570Z,2868
2018-07-28T08:25:58.452Z,2812
2018-07-28T08:27:14.395Z,2786
2018-07-28T08:28:30.326Z,2769
2018-07-28T08:29:46.208Z,2743
2018-07-28T08:31:02.158Z,2685
2018-07-28T08:32:18.109Z,2680
2018-07-28T08:33:33.990Z,2723
2018-07-28T08:34:49.892Z,2852
2018-07-28T08:36:05.817Z,3026
2018-07-28T08:37:21.720Z,3257
2018-07-28T08:38:37.621Z,3451
2018-07-28T08:39:53.703Z,3616
2018-07-28T08:41:09.578Z,3767
2018-07-28T08:42:25.515Z,3867
2018-07-28T08:43:41.433Z,3831
2018-07-28T08:44:57.370Z,3690
2018-07-28T08:46:13.314Z,3538
2018-07-28T08:47:29.253Z,3407
2018-07-28T08:48:45.229Z,3304
2018-07-28T08:50:01.076Z,3341
2018-07-28T08:51:17.014Z,3448
2018-07-28T08:52:32.987Z,3534
2018-07-28T08:53:48.915Z,3680
2018-07-28T08:55:04.844Z,3813
2018-07-28T08:56:20.764Z,3868
2018-07-28T08:57:36.748Z,3855
2018-07-28T08:58:52.625Z,3800
2018-07-28T09:00:08.522Z,3741
2018-07-28T09:01:24.439Z,3643
2018-07-28T09:02:40.369Z,3566
2018-07-28T09:03:56.316Z,3504
2018-07-28T09:05:12.282Z,3460
2018-07-28T09:06:28.192Z,3404
2018-07-28T09:07:44.100Z,3360
2018-07-28T09:09:00.088Z,3323
2018-07-28T09:10:16.041Z,3292
2018-07-28T09:11:31.953Z,3264
2018-07-28T09:12:47.865Z,3256
2018-07-28T09:14:03.812Z,3246
2018-07-28T09:15:19.706Z,3250
2018-07-28T09:16:35.750Z,3278
2018-07-28T09:17:51.765Z,3330
2018-07-28T09:19:07.695Z,3407
2018-07-28T09:20:23.651Z,3512
2018-07-28T09:21:39.615Z,3642
2018-07-28T09:22:55.591Z,3811
2018-07-28T09:24:11.578Z,4001
2018-07-28T09:25:27.512Z,4218
2018-07-28T09:26:43.466Z,4461
2018-07-28T09:27:59.393Z,4697
2018-07-28T09:29:15.314Z,4923
2018-07-28T09:30:31.258Z,5154
2018-07-28T09:31:47.374Z,5292
2018-07-28T09:33:03.301Z,5534
2018-07-28T09:34:19.286Z,5711
2018-07-28T09:35:35.207Z,5850
2018-07-28T09:36:51.305Z,5942
2018-07-28T09:38:07.184Z,6023
2018-07-28T09:39:23.166Z,6069
2018-07-28T09:40:39.073Z,6035
2018-07-28T09:41:55.064Z,5932
2018-07-28T09:43:10.971Z,5812
2018-07-28T09:46:08.775Z,5609
2018-07-28T09:47:24.689Z,5562
2018-07-28T09:48:40.675Z,5516
2018-07-28T09:49:56.679Z,5477
2018-07-28T09:51:12.623Z,5425
2018-07-28T09:52:28.525Z,5414
2018-07-28T09:53:44.472Z,5451
2018-07-28T09:55:00.451Z,5516
2018-07-28T09:56:17.512Z,5572
2018-07-28T09:57:33.409Z,5634
2018-07-28T09:58:49.380Z,5738
2018-07-28T10:01:49.867Z,5713
2018-07-28T10:03:05.796Z,5803
2018-07-28T10:04:21.743Z,5766
2018-07-28T10:05:37.787Z,5817
2018-07-28T10:06:53.690Z,5989
2018-07-28T10:08:09.610Z,6217
2018-07-28T10:09:25.527Z,6498
2018-07-28T10:10:41.492Z,6721
2018-07-28T10:11:57.368Z,6947
2018-07-28T10:13:13.286Z,7189
2018-07-28T10:14:29.211Z,7434
2018-07-28T10:15:45.111Z,7642
2018-07-28T10:17:01.067Z,7833
2018-07-28T10:18:17.076Z,7885
2018-07-28T10:19:32.992Z,7846
2018-07-28T10:20:48.907Z,7878
2018-07-28T10:22:04.872Z,8040
2018-07-28T10:23:20.823Z,8192
2018-07-28T10:24:36.789Z,8144
2018-07-28T10:25:52.676Z,7844
2018-07-28T10:27:08.541Z,7674
2018-07-28T10:28:24.515Z,7708
2018-07-28T10:29:40.435Z,8536
2018-07-28T10:30:56.358Z,8461
2018-07-28T10:32:12.331Z,9367
2018-07-28T10:33:28.289Z,9392
2018-07-28T10:34:44.164Z,10460
2018-07-28T10:36:00.126Z,10916
2018-07-28T10:37:16.112Z,10989
2018-07-28T10:38:32.011Z,10935
2018-07-28T10:39:47.959Z,10706
2018-07-28T10:41:03.843Z,10318
2018-07-28T10:42:19.760Z,9863
2018-07-28T10:43:35.739Z,9624
2018-07-28T10:44:51.637Z,9447
2018-07-28T10:46:07.532Z,9582
2018-07-28T10:47:23.413Z,9421
2018-07-28T10:48:39.344Z,9346
2018-07-28T10:49:55.228Z,9348
2018-07-28T10:51:11.146Z,9469
2018-07-28T10:52:27.120Z,9660
2018-07-28T10:53:43.039Z,9704
2018-07-28T10:54:58.932Z,9599
2018-07-28T10:56:14.877Z,9500
2018-07-28T10:57:30.814Z,9519
2018-07-28T10:58:46.691Z,9546
2018-07-28T11:00:02.652Z,9624
2018-07-28T11:01:18.493Z,9662
2018-07-28T11:02:34.394Z,9666
2018-07-28T11:03:50.333Z,9887
2018-07-28T11:05:06.272Z,9883
2018-07-28T11:06:22.189Z,10304
2018-07-28T11:07:38.108Z,10607
2018-07-28T11:08:54.033Z,10883
2018-07-28T11:10:10.025Z,11022
2018-07-28T11:11:26.028Z,11023
2018-07-28T11:12:41.941Z,11859
2018-07-28T11:13:57.898Z,11962
2018-07-28T11:15:13.805Z,12611
2018-07-28T11:16:29.709Z,13005
2018-07-28T11:17:45.662Z,13060
2018-07-28T11:20:42.455Z,13936
2018-07-28T11:21:58.375Z,13678
2018-07-28T11:23:14.305Z,13411
2018-07-28T11:24:30.235Z,13722
2018-07-28T11:25:46.135Z,13336
2018-07-28T11:27:02.068Z,13303
2018-07-28T11:28:18.009Z,13207
2018-07-28T11:29:33.954Z,13405
2018-07-28T11:30:49.933Z,13423
2018-07-28T11:32:06.011Z,13192
2018-07-28T11:33:21.902Z,13264
2018-07-28T11:34:37.846Z,13740
2018-07-28T11:35:53.792Z,13771
2018-07-28T11:37:09.740Z,13434
2018-07-28T11:38:25.658Z,13426
2018-07-28T11:39:41.615Z,13431
2018-07-28T11:40:57.689Z,13468
2018-07-28T11:42:13.647Z,14043
2018-07-28T11:43:29.553Z,13027
2018-07-28T11:44:45.495Z,13015
2018-07-28T11:46:01.461Z,13083
2018-07-28T11:47:17.391Z,13700
2018-07-28T11:48:33.335Z,13551
2018-07-28T11:49:50.284Z,13072
2018-07-28T11:51:06.253Z,12819
2018-07-28T11:52:22.212Z,12550
2018-07-28T11:53:38.094Z,12432
2018-07-28T11:54:54.040Z,12276
2018-07-28T11:56:09.969Z,12012
2018-07-28T11:57:26.847Z,11544
2018-07-28T11:58:42.797Z,10691
2018-07-28T11:59:58.760Z,10047
2018-07-28T12:01:14.684Z,9521
2018-07-28T12:02:30.599Z,9042
2018-07-28T12:03:46.494Z,8697
2018-07-28T12:05:02.540Z,8220
2018-07-28T12:06:18.481Z,7807
2018-07-28T12:07:34.456Z,7648
2018-07-28T12:08:50.384Z,7633
2018-07-28T12:10:06.298Z,7703
2018-07-28T12:11:22.235Z,7755
2018-07-28T12:12:38.221Z,7768
2018-07-28T12:13:54.081Z,7741
2018-07-28T12:15:09.975Z,7761
2018-07-28T12:16:25.905Z,7735
2018-07-28T12:17:41.817Z,7649
2018-07-28T12:18:57.706Z,7580
2018-07-28T12:20:13.662Z,7568
2018-07-28T12:21:29.629Z,7524
2018-07-28T12:22:45.545Z,7369
2018-07-28T12:24:01.492Z,7223
2018-07-28T12:25:17.398Z,7178
2018-07-28T12:26:33.351Z,7160
2018-07-28T12:27:49.270Z,7214
2018-07-28T12:29:05.205Z,7300
2018-07-28T12:30:21.129Z,7301
2018-07-28T12:31:37.087Z,7242
2018-07-28T12:32:53.042Z,7088
2018-07-28T12:34:08.947Z,6925
2018-07-28T12:35:24.893Z,6739
2018-07-28T12:36:40.791Z,6622
2018-07-28T12:37:56.717Z,6511
2018-07-28T12:39:12.646Z,6481
2018-07-28T12:40:28.617Z,6431
2018-07-28T12:41:44.513Z,6366
2018-07-28T12:43:00.453Z,6385
2018-07-28T12:44:16.473Z,6427
2018-07-28T12:45:32.379Z,6406
2018-07-28T12:46:48.269Z,6351
2018-07-28T12:48:04.218Z,6266
2018-07-28T12:49:20.351Z,6148
2018-07-28T12:50:37.426Z,6003
2018-07-28T12:51:53.894Z,5888
2018-07-28T12:53:09.837Z,5718
2018-07-28T12:54:25.802Z,5620
2018-07-28T12:55:41.707Z,5397
2018-07-28T12:56:57.709Z,5326
2018-07-28T12:58:13.651Z,5266
2018-07-28T12:59:29.628Z,5228
2018-07-28T13:00:45.579Z,5200
2018-07-28T13:02:01.502Z,5172
2018-07-28T13:03:17.456Z,5162
2018-07-28T13:04:33.392Z,5189
2018-07-28T13:05:49.346Z,5133
2018-07-28T13:07:05.285Z,5168
2018-07-28T13:08:21.231Z,5224
2018-07-28T13:09:37.205Z,5338
2018-07-28T13:10:53.102Z,5450
2018-07-28T13:12:09.100Z,5571
2018-07-28T13:13:25.060Z,5698
2018-07-28T13:14:40.975Z,5846
2018-07-28T13:15:56.905Z,6007
2018-07-28T13:17:12.815Z,6178
2018-07-28T13:18:28.742Z,6410
2018-07-28T13:19:44.694Z,6634
2018-07-28T13:21:00.608Z,6890
2018-07-28T13:22:16.547Z,7196
2018-07-28T13:23:32.557Z,7513
2018-07-28T13:24:48.489Z,7800
2018-07-28T13:26:04.421Z,8146
2018-07-28T13:27:20.357Z,8472
2018-07-28T13:28:36.266Z,8727
2018-07-28T13:29:52.305Z,9064
2018-07-28T13:31:08.274Z,9274
2018-07-28T13:32:24.195Z,9442
2018-07-28T13:33:40.144Z,9641
2018-07-28T13:34:56.027Z,9799
2018-07-28T13:36:11.970Z,10014
2018-07-28T13:37:27.926Z,10069
2018-07-28T13:38:44.017Z,10178
2018-07-28T13:40:00.238Z,10253
2018-07-28T13:41:16.154Z,10273
2018-07-28T13:42:32.079Z,10180
2018-07-28T13:43:47.976Z,10020
2018-07-28T13:45:03.855Z,9806
2018-07-28T13:46:19.782Z,9552
2018-07-28T13:47:35.757Z,9336
2018-07-28T13:48:51.709Z,9221
2018-07-28T13:50:07.643Z,9052
2018-07-28T13:51:23.586Z,8908
2018-07-28T13:52:39.554Z,8747
2018-07-28T13:53:55.450Z,8546
2018-07-28T13:55:11.378Z,8491
2018-07-28T13:56:27.289Z,8339
2018-07-28T13:57:43.265Z,8167
2018-07-28T13:58:59.182Z,8051
2018-07-28T14:00:15.162Z,7878
2018-07-28T14:01:31.033Z,7729
2018-07-28T14:02:47.020Z,7580
2018-07-28T14:04:02.894Z,7447
2018-07-28T14:05:18.872Z,7317
2018-07-28T14:06:34.809Z,7085
2018-07-28T14:07:50.798Z,6874
2018-07-28T14:09:08.643Z,6663
2018-07-28T14:10:24.604Z,6379
2018-07-28T14:11:40.564Z,6141
2018-07-28T14:12:56.518Z,5924
2018-07-28T14:14:12.746Z,5733
2018-07-28T14:17:09.143Z,5397
2018-07-28T14:18:25.223Z,5309
2018-07-28T14:19:40.989Z,5217
2018-07-28T14:20:56.893Z,5163
2018-07-28T14:22:12.837Z,5126
2018-07-28T14:23:28.801Z,5104
2018-07-28T14:24:44.757Z,5113
2018-07-28T14:26:00.655Z,5198
2018-07-28T14:27:16.582Z,5157
2018-07-28T14:28:32.577Z,5150
2018-07-28T14:29:48.571Z,5163
2018-07-28T14:31:04.490Z,5154
2018-07-28T14:32:20.404Z,5208
2018-07-28T14:33:36.366Z,5198
2018-07-28T14:34:52.310Z,5220
2018-07-28T14:36:08.215Z,5242
2018-07-28T14:37:24.135Z,5250
2018-07-28T14:38:40.009Z,5285
2018-07-28T14:39:55.934Z,5341
2018-07-28T14:41:11.987Z,5268
2018-07-28T14:42:27.882Z,5212
2018-07-28T14:43:43.839Z,5155
2018-07-28T14:44:59.776Z,5107
2018-07-28T14:46:15.658Z,5066
2018-07-28T14:47:31.538Z,5084
2018-07-28T14:48:47.422Z,5028
2018-07-28T14:50:03.420Z,5040
2018-07-28T14:51:19.393Z,4967
2018-07-28T14:52:35.279Z,4963
2018-07-28T14:53:51.256Z,4869
2018-07-28T14:55:07.185Z,4808
2018-07-28T14:56:23.097Z,4766
2018-07-28T14:57:39.991Z,4769
2018-07-28T14:58:55.938Z,4774
2018-07-28T15:00:11.862Z,4769
2018-07-28T15:01:27.796Z,4790
2018-07-28T15:02:43.679Z,4794
2018-07-28T15:03:59.594Z,4814
2018-07-28T15:05:15.553Z,4895
2018-07-28T15:06:31.497Z,4968
2018-07-28T15:07:47.455Z,5078
2018-07-28T15:09:03.356Z,5227
2018-07-28T15:10:19.301Z,5424
2018-07-28T15:11:35.156Z,5629
2018-07-28T15:12:51.088Z,5851
2018-07-28T15:14:06.975Z,6089
2018-07-28T15:15:22.935Z,6375
2018-07-28T15:16:38.871Z,6568
2018-07-28T15:17:54.871Z,6719
2018-07-28T15:19:10.890Z,6818
2018-07-28T15:20:26.850Z,6918
2018-07-28T15:21:42.969Z,7085
2018-07-28T15:22:59.033Z,7310
2018-07-28T15:24:14.991Z,7410
2018-07-28T15:25:30.936Z,7369
2018-07-28T15:26:46.846Z,7222
2018-07-28T15:29:44.319Z,6818
2018-07-28T15:31:00.237Z,6950
2018-07-28T15:32:16.135Z,6822
2018-07-28T15:33:32.069Z,6780
2018-07-28T15:34:48.002Z,6726
2018-07-28T15:36:03.925Z,5757
2018-07-28T15:37:19.841Z,6345
2018-07-28T15:38:35.757Z,5851
2018-07-28T15:39:51.668Z,5257
2018-07-28T15:41:07.569Z,4926
2018-07-28T15:42:23.473Z,4615
2018-07-28T15:43:39.422Z,4192
2018-07-28T15:44:55.345Z,3742
2018-07-28T15:46:11.261Z,3401
2018-07-28T15:47:27.182Z,3114
2018-07-28T15:48:43.181Z,2905
2018-07-28T15:49:59.119Z,2746
2018-07-28T15:51:15.141Z,2595
2018-07-28T15:52:31.136Z,2467
2018-07-28T15:55:18.845Z,2358
2018-07-28T15:56:34.801Z,2163
2018-07-28T15:57:50.715Z,2129
2018-07-28T15:59:06.623Z,2121
2018-07-28T16:00:22.589Z,2140
2018-07-28T16:01:38.610Z,2177
2018-07-28T16:02:54.485Z,2175
2018-07-28T16:04:10.405Z,2138
2018-07-28T16:05:26.330Z,2053
2018-07-28T16:06:42.248Z,1945
2018-07-28T16:07:58.175Z,1831
2018-07-28T16:09:14.137Z,1744
2018-07-28T16:10:30.049Z,1653
2018-07-28T16:11:45.964Z,1565
2018-07-28T16:13:01.848Z,1470
2018-07-28T16:14:17.747Z,1398
2018-07-28T16:15:33.678Z,1343
2018-07-28T16:16:49.576Z,1294
2018-07-28T16:18:05.482Z,1272
2018-07-28T16:19:21.387Z,1217
2018-07-28T16:20:37.288Z,1166
2018-07-28T16:21:53.222Z,1134
2018-07-28T16:23:09.125Z,1112
2018-07-28T16:26:05.529Z,1092
2018-07-28T16:27:21.410Z,1077
2018-07-28T16:28:37.299Z,1073
2018-07-28T16:29:53.190Z,1088
2018-07-28T16:31:09.096Z,1105
2018-07-28T16:32:24.990Z,1146
2018-07-28T16:33:40.883Z,1194
2018-07-28T16:34:56.808Z,1258
2018-07-28T16:36:12.741Z,1326
2018-07-28T16:37:28.646Z,1398
2018-07-28T16:38:44.540Z,1454
2018-07-28T16:40:00.479Z,1518
2018-07-28T16:41:16.394Z,1586
2018-07-28T16:42:32.384Z,1647
2018-07-28T16:43:48.312Z,1704
2018-07-28T16:45:04.286Z,1738
2018-07-28T16:46:20.194Z,1724
2018-07-28T16:47:36.155Z,1684
2018-07-28T16:48:52.052Z,1643
2018-07-28T16:50:07.951Z,1609
2018-07-28T16:51:23.873Z,1573
2018-07-28T16:52:39.811Z,1522
2018-07-28T16:53:55.727Z,1442
2018-07-28T16:55:11.649Z,1334
2018-07-28T16:56:27.563Z,1226
2018-07-28T16:57:43.624Z,1158
2018-07-28T16:58:59.620Z,1124
2018-07-28T17:00:15.506Z,1120
2018-07-28T17:01:31.423Z,1135
2018-07-28T17:02:48.358Z,1149
2018-07-28T17:04:04.320Z,1171
2018-07-28T17:05:20.310Z,1203
2018-07-28T17:06:36.272Z,1236
2018-07-28T17:07:52.184Z,1246
2018-07-28T17:09:08.093Z,1214
2018-07-28T17:10:24.039Z,1113
2018-07-28T17:11:39.925Z,985
2018-07-28T17:12:56.080Z,904
2018-07-28T17:14:12.028Z,861
2018-07-28T17:15:27.945Z,837
2018-07-28T17:16:44.012Z,820
2018-07-28T17:17:59.922Z,779
2018-07-28T17:19:15.828Z,721
2018-07-28T17:20:31.800Z,655
2018-07-28T17:21:47.737Z,620
2018-07-28T17:23:03.825Z,604
2018-07-28T17:24:19.722Z,602
2018-07-28T17:25:35.678Z,610